Time;durP1;ratioP1;P1;durP2;ratioP2;P2;SDS_P1;SDS_P2;PMS_P1;PMS_P2;Temp;Humidity;BMP_temperature;BMP_pressure;BME280_temperature;BME280_humidity;BME280_pressure;Samples;Min_cycle;Max_cycle;Signal;HPM_P1;HPM_P2
2021/03/18 00:01:41;;;;;;;16.02;4.97;;;0.70;99.90;;;;;;5052410;28;20037;-79
2021/03/18 00:04:09;;;;;;;15.18;5.93;;;0.70;99.90;;;;;;5052112;28;20048;-79
2021/03/18 00:06:36;;;;;;;12.32;4.47;;;0.60;99.90;;;;;;5052580;28;20021;-79
2021/03/18 00:09:05;;;;;;;24.77;4.93;;;0.60;99.90;;;;;;5052462;28;20155;-79
2021/03/18 00:11:31;;;;;;;16.65;4.63;;;0.60;99.90;;;;;;5034445;28;20501;-80
2021/03/18 00:13:56;;;;;;;32.95;6.03;;;0.60;99.90;;;;;;5051710;28;20095;-79
2021/03/18 00:16:22;;;;;;;21.77;5.63;;;0.70;99.90;;;;;;5034701;28;20071;-79
2021/03/18 00:18:50;;;;;;;21.58;5.20;;;0.70;99.90;;;;;;5052454;28;20025;-79
2021/03/18 00:21:18;;;;;;;26.30;5.65;;;0.70;99.90;;;;;;5033599;28;20028;-79
2021/03/18 00:23:43;;;;;;;15.07;4.30;;;0.70;99.90;;;;;;5050864;28;20032;-80
2021/03/18 00:26:10;;;;;;;18.58;4.22;;;0.60;99.90;;;;;;5051758;28;20362;-79
2021/03/18 00:28:36;;;;;;;24.85;4.40;;;0.60;99.90;;;;;;5052122;28;20036;-79
2021/03/18 00:31:04;;;;;;;17.58;5.03;;;0.50;99.90;;;;;;5051717;28;20047;-79
2021/03/18 00:33:30;;;;;;;19.98;5.22;;;0.40;99.90;;;;;;5034286;28;20025;-80
2021/03/18 00:35:56;;;;;;;17.08;5.10;;;0.40;99.90;;;;;;5051577;28;20432;-79
2021/03/18 00:38:22;;;;;;;17.05;5.57;;;0.30;99.90;;;;;;5052074;28;20021;-79
2021/03/18 00:40:58;;;;;;;20.70;4.90;;;0.40;99.90;;;;;;5051642;28;20025;-79
2021/03/18 00:43:25;;;;;;;16.38;4.63;;;0.30;99.90;;;;;;5052055;28;20033;-79
2021/03/18 00:45:51;;;;;;;21.42;4.60;;;0.30;99.90;;;;;;5051394;28;20021;-80
2021/03/18 00:48:19;;;;;;;18.25;4.40;;;0.20;99.90;;;;;;5051819;28;20053;-79
2021/03/18 00:50:55;;;;;;;11.93;3.63;;;0.20;99.90;;;;;;5033659;28;20535;-80
2021/03/18 00:53:34;;;;;;;5.72;3.53;;;0.10;99.90;;;;;;5051710;28;20497;-80
2021/03/18 00:56:00;;;;;;;16.80;3.72;;;0.00;99.90;;;;;;5051076;28;20497;-80
2021/03/18 00:58:26;;;;;;;7.88;3.78;;;-0.10;99.90;;;;;;5051779;28;20493;-80
2021/03/18 01:00:55;;;;;;;10.70;3.65;;;-0.20;99.90;;;;;;5051266;28;20029;-79
2021/03/18 01:03:25;;;;;;;6.80;3.63;;;-0.20;99.90;;;;;;5051698;28;20054;-79
2021/03/18 01:05:53;;;;;;;22.90;4.38;;;-0.30;99.90;;;;;;5050990;28;20025;-79
2021/03/18 01:08:21;;;;;;;14.63;4.43;;;-0.30;99.90;;;;;;5051464;28;20025;-79
2021/03/18 01:10:49;;;;;;;5.10;3.08;;;-0.30;99.90;;;;;;5051292;28;20029;-79
2021/03/18 01:13:19;;;;;;;13.10;4.18;;;-0.30;99.90;;;;;;5050898;28;20092;-80
2021/03/18 01:15:50;;;;;;;14.63;4.63;;;-0.40;99.90;;;;;;5050876;28;20032;-80
2021/03/18 01:18:18;;;;;;;10.85;3.80;;;-0.40;99.90;;;;;;5051515;28;20067;-79
2021/03/18 01:20:44;;;;;;;17.15;3.92;;;-0.40;99.90;;;;;;5033049;28;20024;-80
2021/03/18 01:23:09;;;;;;;14.05;3.83;;;-0.50;99.90;;;;;;5051568;28;20021;-80
2021/03/18 01:25:35;;;;;;;7.70;3.40;;;-0.50;99.90;;;;;;5050428;28;20511;-79
2021/03/18 01:28:00;;;;;;;14.40;3.83;;;-0.60;99.90;;;;;;5051354;28;20036;-79
2021/03/18 01:30:26;;;;;;;11.80;4.15;;;-0.60;99.90;;;;;;5051227;28;20021;-79
2021/03/18 01:32:52;;;;;;;16.38;4.30;;;-0.70;99.90;;;;;;5033229;28;20059;-79
2021/03/18 01:35:20;;;;;;;8.70;3.58;;;-0.70;99.90;;;;;;5051228;28;20028;-79
2021/03/18 01:37:46;;;;;;;13.88;3.53;;;-0.70;99.90;;;;;;5037486;28;20477;-80
2021/03/18 01:40:18;;;;;;;9.93;3.85;;;-0.80;99.90;;;;;;5054843;28;20051;-79
2021/03/18 01:42:44;;;;;;;16.13;4.75;;;-0.80;99.90;;;;;;5055120;28;20108;-79
2021/03/18 01:45:11;;;;;;;8.63;3.22;;;-0.80;99.90;;;;;;5054681;28;20124;-79
2021/03/18 01:47:41;;;;;;;14.98;4.13;;;-0.80;99.90;;;;;;5055434;28;20400;-79
2021/03/18 01:50:08;;;;;;;13.60;3.97;;;-0.80;99.90;;;;;;5055100;28;20028;-79
2021/03/18 01:52:34;;;;;;;19.52;4.82;;;-0.70;99.90;;;;;;5037465;28;20040;-79
2021/03/18 01:55:00;;;;;;;17.08;4.30;;;-0.60;99.90;;;;;;5053779;28;20048;-79
2021/03/18 01:57:26;;;;;;;10.98;3.95;;;-0.50;99.90;;;;;;5055064;28;20472;-80
2021/03/18 01:59:53;;;;;;;10.32;4.38;;;-0.40;99.90;;;;;;5054320;28;20665;-80
2021/03/18 02:02:19;;;;;;;15.82;4.35;;;-0.30;99.90;;;;;;5037240;28;20116;-79
2021/03/18 02:04:45;;;;;;;9.75;4.10;;;-0.30;99.90;;;;;;5054189;28;20061;-79
2021/03/18 02:07:11;;;;;;;17.58;5.07;;;-0.20;99.90;;;;;;5054745;28;20029;-79
2021/03/18 02:09:36;;;;;;;19.50;5.30;;;-0.10;99.90;;;;;;5054674;28;20113;-79
2021/03/18 02:12:02;;;;;;;20.73;5.30;;;-0.10;99.90;;;;;;5054511;28;20100;-79
2021/03/18 02:14:28;;;;;;;22.55;5.05;;;-0.10;99.90;;;;;;5054137;28;20500;-79
2021/03/18 02:16:57;;;;;;;31.08;4.68;;;-0.10;99.90;;;;;;5037287;28;20025;-79
2021/03/18 02:19:31;;;;;;;29.02;5.75;;;-0.10;99.90;;;;;;5054601;28;20071;-79
2021/03/18 02:22:41;;;;;;;24.05;4.95;;;-0.20;99.90;;;;;;5054135;28;20029;-79
2021/03/18 02:25:13;;;;;;;25.42;4.38;;;-0.30;99.90;;;;;;5053669;28;20040;-79
2021/03/18 02:28:13;;;;;;;9.70;3.85;;;-0.30;99.90;;;;;;5054474;28;20501;-79
2021/03/18 02:30:56;;;;;;;11.43;4.90;;;-0.40;99.90;;;;;;5054493;28;20036;-79
2021/03/18 02:34:19;;;;;;;15.23;4.45;;;-0.40;99.90;;;;;;5034609;28;20046;-79
2021/03/18 02:36:49;;;;;;;20.55;5.28;;;-0.40;99.90;;;;;;4937032;28;20031;-79
2021/03/18 02:39:24;;;;;;;20.60;4.63;;;-0.20;99.90;;;;;;4954120;29;20492;-79
2021/03/18 02:41:56;;;;;;;20.90;5.65;;;-0.10;99.90;;;;;;4998632;28;20037;-79
2021/03/18 02:44:27;;;;;;;18.35;5.88;;;0.00;99.90;;;;;;5033649;28;20108;-79
2021/03/18 02:47:03;;;;;;;18.38;5.25;;;0.00;99.90;;;;;;5033420;28;20026;-79
2021/03/18 02:49:32;;;;;;;29.35;6.10;;;0.00;99.90;;;;;;5034197;28;20068;-79
2021/03/18 02:51:59;;;;;;;21.17;6.25;;;0.10;99.90;;;;;;5047278;28;20536;-79
2021/03/18 02:54:25;;;;;;;40.92;7.45;;;0.20;99.90;;;;;;5035613;28;20422;-79
2021/03/18 02:56:54;;;;;;;27.25;6.72;;;0.30;99.90;;;;;;5053776;28;20029;-79
2021/03/18 02:59:25;;;;;;;35.97;6.30;;;0.40;99.90;;;;;;5053700;28;20481;-79
2021/03/18 03:01:51;;;;;;;18.10;6.28;;;0.50;99.90;;;;;;5035445;28;20036;-79
2021/03/18 03:04:19;;;;;;;25.38;6.05;;;0.60;99.90;;;;;;5035352;28;20025;-79
2021/03/18 03:06:47;;;;;;;24.75;6.35;;;0.50;99.90;;;;;;5053644;28;20037;-79
2021/03/18 03:09:12;;;;;;;29.38;6.63;;;0.50;99.90;;;;;;5053761;28;20112;-79
2021/03/18 03:11:40;;;;;;;23.40;6.25;;;0.50;99.90;;;;;;5053505;28;20155;-79
2021/03/18 03:14:07;;;;;;;23.20;5.70;;;0.50;99.90;;;;;;5052814;28;20104;-79
2021/03/18 03:16:34;;;;;;;19.75;5.82;;;0.50;99.90;;;;;;5053751;28;20025;-79
2021/03/18 03:19:01;;;;;;;22.75;6.45;;;0.50;99.90;;;;;;5035922;28;20032;-79
2021/03/18 03:21:27;;;;;;;30.52;6.20;;;0.60;99.90;;;;;;5035245;28;20393;-79
2021/03/18 03:23:53;;;;;;;31.73;6.75;;;0.60;99.90;;;;;;5052737;28;20078;-79
2021/03/18 03:26:22;;;;;;;31.60;6.88;;;0.60;99.90;;;;;;5035096;28;20118;-79
2021/03/18 03:28:49;;;;;;;45.40;7.07;;;0.60;99.90;;;;;;5035273;28;20056;-79
2021/03/18 03:31:15;;;;;;;19.05;6.82;;;0.60;99.90;;;;;;5053035;28;20031;-79
2021/03/18 03:33:40;;;;;;;26.13;7.75;;;0.60;99.90;;;;;;5035117;28;20089;-79
2021/03/18 03:36:07;;;;;;;31.98;7.53;;;0.50;99.90;;;;;;5052732;28;20492;-79
2021/03/18 03:38:33;;;;;;;31.77;7.22;;;0.50;99.90;;;;;;5052810;28;20110;-79
2021/03/18 03:40:59;;;;;;;22.15;6.90;;;0.50;99.90;;;;;;5052074;28;20025;-79
2021/03/18 03:43:25;;;;;;;24.95;6.68;;;0.50;99.90;;;;;;5052888;28;20052;-79
2021/03/18 03:45:52;;;;;;;33.13;8.88;;;0.40;99.90;;;;;;5034648;28;20477;-79
2021/03/18 03:48:20;;;;;;;25.85;7.15;;;0.40;99.90;;;;;;5052994;28;20021;-79
2021/03/18 03:50:45;;;;;;;33.95;7.05;;;0.40;99.90;;;;;;5034156;28;20060;-79
2021/03/18 03:53:36;;;;;;;29.20;6.22;;;0.40;99.90;;;;;;5053086;28;20436;-79
2021/03/18 03:56:16;;;;;;;21.67;5.93;;;0.30;99.90;;;;;;5034326;28;20079;-79
2021/03/18 03:58:45;;;;;;;19.88;6.22;;;0.30;99.90;;;;;;5034986;28;20028;-79
2021/03/18 04:01:27;;;;;;;18.17;5.82;;;0.30;99.90;;;;;;5052648;28;20452;-79
2021/03/18 04:03:56;;;;;;;16.20;5.85;;;0.30;99.90;;;;;;5034349;28;20562;-79
2021/03/18 04:06:22;;;;;;;24.02;5.80;;;0.30;99.90;;;;;;5052660;28;20074;-80
2021/03/18 04:08:49;;;;;;;26.33;6.30;;;0.30;99.90;;;;;;5034957;28;20028;-79
2021/03/18 04:11:15;;;;;;;17.90;5.97;;;0.30;99.90;;;;;;5052181;28;20033;-79
2021/03/18 04:13:42;;;;;;;27.13;6.53;;;0.30;99.90;;;;;;5052234;28;20481;-79
2021/03/18 04:16:07;;;;;;;16.35;6.07;;;0.30;99.90;;;;;;5034497;28;20485;-79
2021/03/18 04:18:39;;;;;;;27.27;6.25;;;0.30;99.90;;;;;;5034563;28;20112;-79
2021/03/18 04:21:07;;;;;;;15.00;4.97;;;0.30;99.90;;;;;;5034081;28;20443;-79
2021/03/18 04:23:33;;;;;;;22.52;5.72;;;0.30;99.90;;;;;;5052209;28;20029;-79
2021/03/18 04:25:59;;;;;;;31.88;5.90;;;0.30;99.90;;;;;;5051602;28;20434;-79
2021/03/18 04:28:31;;;;;;;17.00;5.70;;;0.20;99.90;;;;;;5052287;28;20466;-79
2021/03/18 04:30:58;;;;;;;18.13;5.45;;;0.20;99.90;;;;;;5051776;28;20098;-79
2021/03/18 04:33:26;;;;;;;24.52;6.97;;;0.20;99.90;;;;;;5052246;28;20083;-79
2021/03/18 04:35:52;;;;;;;16.85;5.28;;;0.20;99.90;;;;;;5051754;28;20537;-79
2021/03/18 04:38:18;;;;;;;25.42;6.18;;;0.20;99.90;;;;;;5052311;28;20019;-79
2021/03/18 04:40:45;;;;;;;20.70;5.72;;;0.20;99.90;;;;;;5051805;28;20111;-79
2021/03/18 04:43:12;;;;;;;18.73;5.95;;;0.20;99.90;;;;;;5034269;28;20447;-79
2021/03/18 04:45:39;;;;;;;15.63;6.45;;;0.10;99.90;;;;;;5051317;28;20047;-79
2021/03/18 04:48:06;;;;;;;16.10;4.88;;;0.10;99.90;;;;;;5052072;28;20056;-79
2021/03/18 04:50:33;;;;;;;17.98;5.63;;;0.10;99.90;;;;;;5033687;28;20025;-79
2021/03/18 04:52:58;;;;;;;15.25;5.20;;;0.00;99.90;;;;;;5051706;28;20021;-79
2021/03/18 04:55:25;;;;;;;21.73;6.05;;;0.00;99.90;;;;;;5051253;28;20032;-79
2021/03/18 04:58:05;;;;;;;26.65;5.68;;;0.00;99.90;;;;;;5052122;28;20470;-79
2021/03/18 05:00:33;;;;;;;13.32;4.72;;;0.00;99.90;;;;;;5051730;28;20060;-79
2021/03/18 05:03:03;;;;;;;21.45;5.88;;;-0.10;99.90;;;;;;5051385;28;20025;-79
2021/03/18 05:05:30;;;;;;;17.85;5.53;;;-0.10;99.90;;;;;;5051134;28;20553;-79
2021/03/18 05:07:57;;;;;;;14.80;5.07;;;-0.10;99.90;;;;;;5051707;28;20021;-79
2021/03/18 05:10:27;;;;;;;11.18;5.07;;;-0.20;99.90;;;;;;5050637;28;20048;-79
2021/03/18 05:12:55;;;;;;;17.13;5.28;;;-0.30;99.90;;;;;;5031646;28;20577;-79
2021/03/18 05:15:22;;;;;;;12.80;5.57;;;-0.30;99.90;;;;;;5013317;28;20112;-79
2021/03/18 05:17:48;;;;;;;18.80;6.20;;;-0.40;99.90;;;;;;5013971;28;20547;-79
2021/03/18 05:20:17;;;;;;;30.23;7.72;;;-0.40;99.90;;;;;;5013806;28;20486;-79
2021/03/18 05:22:46;;;;;;;16.67;5.75;;;-0.50;99.90;;;;;;5050647;28;20025;-79
2021/03/18 05:25:13;;;;;;;17.58;5.03;;;-0.60;99.90;;;;;;5050474;28;20029;-79
2021/03/18 05:27:39;;;;;;;15.15;4.60;;;-0.60;99.90;;;;;;5033713;28;20163;-79
2021/03/18 05:30:07;;;;;;;15.05;4.78;;;-0.70;99.90;;;;;;5033427;28;20029;-79
2021/03/18 05:32:33;;;;;;;16.83;5.00;;;-0.80;99.90;;;;;;5033312;28;20025;-79
2021/03/18 05:34:59;;;;;;;19.20;5.75;;;-0.80;99.90;;;;;;5032867;28;20040;-79
2021/03/18 05:37:25;;;;;;;19.33;5.13;;;-0.90;99.90;;;;;;5051472;28;20036;-79
2021/03/18 05:39:50;;;;;;;17.98;5.57;;;-0.90;99.90;;;;;;5033333;28;20032;-79
2021/03/18 05:42:17;;;;;;;16.15;5.38;;;-0.90;99.90;;;;;;5051029;28;20481;-79
2021/03/18 05:44:44;;;;;;;22.17;6.53;;;-0.90;99.90;;;;;;5050614;28;20047;-79
2021/03/18 05:47:11;;;;;;;24.95;6.53;;;-0.80;99.90;;;;;;5033508;28;20108;-79
2021/03/18 05:49:37;;;;;;;22.58;5.65;;;-0.80;99.90;;;;;;5051174;28;20025;-79
2021/03/18 05:52:07;;;;;;;18.75;6.55;;;-0.70;99.90;;;;;;5050855;28;20470;-79
2021/03/18 05:54:33;;;;;;;16.52;5.38;;;-0.80;99.90;;;;;;5050457;28;20053;-79
2021/03/18 05:57:00;;;;;;;21.10;6.35;;;-0.80;99.90;;;;;;5050855;28;20029;-79
2021/03/18 05:59:28;;;;;;;21.85;6.93;;;-0.80;99.90;;;;;;5033181;28;20033;-79
2021/03/18 06:01:54;;;;;;;12.20;5.65;;;-0.80;99.90;;;;;;5051021;28;20082;-79
2021/03/18 06:04:21;;;;;;;13.75;5.57;;;-0.70;99.90;;;;;;5050528;28;20060;-79
2021/03/18 06:06:48;;;;;;;13.38;6.00;;;-0.70;99.90;;;;;;5051108;28;20021;-80
2021/03/18 06:09:14;;;;;;;20.30;6.07;;;-0.60;99.90;;;;;;5050909;28;20124;-80
2021/03/18 06:11:40;;;;;;;17.02;5.95;;;-0.60;99.90;;;;;;5032811;28;20080;-79
2021/03/18 06:14:06;;;;;;;13.38;5.38;;;-0.50;99.90;;;;;;5032517;28;20048;-79
2021/03/18 06:16:32;;;;;;;20.35;6.53;;;-0.50;99.90;;;;;;5051021;28;20056;-79
2021/03/18 06:19:00;;;;;;;22.77;8.60;;;-0.40;99.90;;;;;;5050941;28;20121;-80
2021/03/18 06:21:43;;;;;;;31.15;8.43;;;-0.30;99.90;;;;;;5051288;28;20033;-79
2021/03/18 06:24:09;;;;;;;14.80;5.90;;;-0.20;99.90;;;;;;5053786;28;20036;-80
2021/03/18 06:26:36;;;;;;;16.48;6.82;;;-0.10;99.90;;;;;;5054411;28;20036;-79
2021/03/18 06:29:22;;;;;;;24.95;8.55;;;0.00;99.90;;;;;;5054552;28;20021;-79
2021/03/18 06:31:47;;;;;;;17.70;8.02;;;0.10;99.90;;;;;;5054172;28;20021;-79
2021/03/18 06:34:34;;;;;;;18.05;9.27;;;0.20;99.90;;;;;;5053760;28;20405;-79
2021/03/18 06:36:59;;;;;;;19.58;10.25;;;0.50;99.90;;;;;;5054368;28;20029;-79
2021/03/18 06:39:31;;;;;;;31.48;11.48;;;0.60;99.90;;;;;;5054411;28;20378;-79
2021/03/18 06:41:59;;;;;;;28.10;10.40;;;0.70;99.90;;;;;;5054191;28;20033;-79
2021/03/18 06:44:30;;;;;;;48.92;11.50;;;0.80;99.90;;;;;;5053681;28;20029;-79
2021/03/18 06:47:15;;;;;;;30.67;11.80;;;0.80;99.90;;;;;;5054313;28;20020;-79
2021/03/18 06:49:41;;;;;;;31.13;10.18;;;0.90;99.90;;;;;;5054043;28;20068;-80
2021/03/18 06:52:11;;;;;;;32.70;11.13;;;1.00;99.90;;;;;;5041967;28;20481;-80
2021/03/18 06:54:44;;;;;;;26.70;10.10;;;1.10;99.90;;;;;;5048757;28;20021;-80
2021/03/18 06:57:17;;;;;;;43.38;11.65;;;1.10;99.90;;;;;;5047657;28;20665;-79
2021/03/18 06:59:43;;;;;;;32.83;10.57;;;1.10;99.90;;;;;;5049804;28;20029;-79
2021/03/18 07:02:13;;;;;;;39.38;11.25;;;1.10;99.90;;;;;;5042195;28;20155;-79
2021/03/18 07:04:56;;;;;;;28.13;9.90;;;1.20;99.90;;;;;;5049883;28;20021;-79
2021/03/18 07:07:25;;;;;;;23.95;9.85;;;1.40;99.90;;;;;;5027204;28;20067;-80
2021/03/18 07:09:53;;;;;;;35.92;10.98;;;1.50;99.90;;;;;;5043356;28;20074;-79
2021/03/18 07:12:26;;;;;;;20.30;9.15;;;1.50;99.90;;;;;;5050097;28;20017;-79
2021/03/18 07:14:58;;;;;;;46.50;10.25;;;1.60;99.90;;;;;;5049576;28;20035;-79
2021/03/18 07:17:29;;;;;;;24.13;10.20;;;1.50;99.90;;;;;;5050405;28;20022;-80
2021/03/18 07:20:17;;;;;;;35.60;12.35;;;1.50;99.90;;;;;;5039514;28;20060;-79
2021/03/18 07:22:53;;;;;;;25.10;10.30;;;1.60;99.90;;;;;;5049756;28;20032;-80
2021/03/18 07:25:26;;;;;;;28.23;12.30;;;1.60;99.90;;;;;;5049545;28;20032;-79
2021/03/18 07:28:02;;;;;;;26.70;9.85;;;1.60;99.90;;;;;;5050131;28;20025;-79
2021/03/18 07:30:32;;;;;;;22.98;11.05;;;1.60;99.90;;;;;;5048806;28;20039;-79
2021/03/18 07:32:59;;;;;;;34.47;11.73;;;1.70;99.90;;;;;;5051099;28;20029;-79
2021/03/18 07:35:26;;;;;;;25.95;11.50;;;1.80;99.90;;;;;;5035058;28;20025;-80
2021/03/18 07:37:53;;;;;;;28.55;10.35;;;2.00;99.90;;;;;;5053406;28;20052;-80
2021/03/18 07:40:20;;;;;;;22.17;10.45;;;2.20;99.90;;;;;;5052958;28;20029;-80
2021/03/18 07:42:48;;;;;;;26.27;9.88;;;2.20;99.90;;;;;;5053206;28;20435;-80
2021/03/18 07:45:17;;;;;;;25.55;10.07;;;2.30;99.90;;;;;;5052066;28;20017;-79
2021/03/18 07:47:44;;;;;;;31.73;11.57;;;2.30;99.90;;;;;;5053165;28;20405;-79
2021/03/18 07:50:11;;;;;;;36.47;13.05;;;2.30;99.90;;;;;;5051847;28;20033;-79
2021/03/18 07:52:42;;;;;;;23.10;11.90;;;2.50;99.90;;;;;;5048509;28;20522;-79
2021/03/18 07:55:10;;;;;;;23.20;10.45;;;2.60;99.90;;;;;;5049255;28;20032;-80
2021/03/18 07:57:43;;;;;;;28.40;11.45;;;2.70;99.90;;;;;;5036780;28;20413;-80
2021/03/18 08:00:15;;;;;;;29.20;13.15;;;2.80;99.90;;;;;;5049178;28;20033;-80
2021/03/18 08:02:41;;;;;;;30.45;13.13;;;2.90;99.90;;;;;;5046678;28;20025;-80
2021/03/18 08:05:07;;;;;;;23.73;12.52;;;3.00;99.90;;;;;;5047397;28;20477;-80
2021/03/18 08:07:40;;;;;;;34.90;11.52;;;3.00;99.90;;;;;;5040204;28;20405;-80
2021/03/18 08:10:12;;;;;;;36.67;11.13;;;3.20;99.90;;;;;;5024462;28;20028;-81
2021/03/18 08:12:46;;;;;;;18.02;10.13;;;3.30;99.90;;;;;;5049211;28;20029;-81
2021/03/18 08:15:21;;;;;;;23.58;9.30;;;3.40;99.90;;;;;;5048965;28;20394;-80
2021/03/18 08:17:47;;;;;;;20.58;10.18;;;3.60;99.90;;;;;;5025912;28;20029;-80
2021/03/18 08:20:33;;;;;;;17.50;10.05;;;3.90;99.90;;;;;;5049239;28;20033;-80
2021/03/18 08:22:59;;;;;;;23.13;8.98;;;4.10;99.90;;;;;;5035199;28;20396;-80
2021/03/18 08:25:24;;;;;;;21.92;10.73;;;4.10;99.90;;;;;;5033946;28;20182;-80
2021/03/18 08:27:50;;;;;;;13.68;8.30;;;4.10;99.90;;;;;;5048862;28;20103;-79
2021/03/18 08:30:33;;;;;;;19.75;8.90;;;4.30;99.90;;;;;;5048912;28;20069;-80
2021/03/18 08:32:59;;;;;;;16.10;9.05;;;4.50;99.90;;;;;;5040793;28;20046;-79
2021/03/18 08:35:27;;;;;;;18.00;8.95;;;4.50;99.90;;;;;;5030458;28;20036;-80
2021/03/18 08:37:55;;;;;;;22.40;10.93;;;4.60;99.90;;;;;;5033012;28;20401;-80
2021/03/18 08:40:20;;;;;;;19.55;9.73;;;4.70;99.90;;;;;;5051802;28;20020;-80
2021/03/18 08:42:47;;;;;;;29.65;10.38;;;4.80;99.90;;;;;;5052089;28;20516;-80
2021/03/18 08:45:18;;;;;;;21.23;9.75;;;4.90;99.90;;;;;;5050068;28;20033;-80
2021/03/18 08:47:47;;;;;;;21.48;11.32;;;4.90;99.90;;;;;;5033834;28;20029;-80
2021/03/18 08:50:34;;;;;;;21.75;13.27;;;5.20;99.90;;;;;;5052011;28;20029;-81
2021/03/18 08:53:02;;;;;;;22.95;11.45;;;5.40;99.90;;;;;;5051613;28;20028;-82
2021/03/18 08:55:39;;;;;;;25.20;12.05;;;5.70;99.90;;;;;;5050757;28;20045;-81
2021/03/18 08:58:06;;;;;;;21.42;10.68;;;6.00;99.90;;;;;;5051755;28;20025;-81
2021/03/18 09:00:33;;;;;;;20.45;11.57;;;6.30;99.90;;;;;;5033878;28;20056;-80
2021/03/18 09:03:00;;;;;;;20.45;11.02;;;6.50;99.90;;;;;;5051498;28;20032;-81
2021/03/18 09:05:26;;;;;;;20.75;11.57;;;6.50;99.90;;;;;;5050941;28;20032;-82
2021/03/18 09:07:56;;;;;;;23.38;10.55;;;6.60;99.90;;;;;;5051680;28;20029;-81
2021/03/18 09:10:30;;;;;;;20.88;9.73;;;6.70;99.90;;;;;;5033437;28;20396;-81
2021/03/18 09:13:00;;;;;;;21.30;9.32;;;7.00;99.90;;;;;;5051718;28;20029;-81
2021/03/18 09:15:30;;;;;;;17.92;8.82;;;7.10;99.90;;;;;;5030870;28;20025;-81
2021/03/18 09:18:18;;;;;;;18.58;8.05;;;7.50;99.90;;;;;;5034363;28;20029;-81
2021/03/18 09:20:58;;;;;;;10.65;5.28;;;7.90;99.90;;;;;;5033405;28;20017;-81
2021/03/18 09:23:26;;;;;;;13.23;6.38;;;8.20;99.90;;;;;;5033329;28;20028;-80
2021/03/18 09:25:57;;;;;;;14.00;5.13;;;8.20;99.90;;;;;;5050691;28;20035;-80
2021/03/18 09:28:23;;;;;;;12.40;6.18;;;8.60;99.90;;;;;;5033688;28;20075;-80
2021/03/18 09:30:54;;;;;;;7.75;4.80;;;8.80;99.90;;;;;;5051126;28;20033;-80
2021/03/18 09:33:20;;;;;;;9.30;4.93;;;8.70;99.90;;;;;;5050995;28;20029;-80
2021/03/18 09:35:47;;;;;;;15.07;5.93;;;9.00;99.90;;;;;;5047087;28;20029;-82
2021/03/18 09:38:18;;;;;;;10.02;4.70;;;9.40;99.90;;;;;;5048189;28;20040;-79
2021/03/18 09:40:44;;;;;;;14.27;5.00;;;9.80;99.90;;;;;;5047053;28;20033;-79
2021/03/18 09:43:10;;;;;;;8.38;4.53;;;9.90;99.90;;;;;;5048030;28;20040;-79
2021/03/18 09:45:36;;;;;;;6.53;3.78;;;9.90;99.90;;;;;;5045348;28;20033;-80
2021/03/18 09:48:01;;;;;;;6.15;2.38;;;10.30;99.90;;;;;;5040698;28;20749;-79
2021/03/18 09:50:29;;;;;;;4.10;2.08;;;10.00;99.90;;;;;;5048090;28;20040;-80
2021/03/18 09:53:15;;;;;;;6.78;3.10;;;10.20;99.90;;;;;;5047802;28;20029;-80
2021/03/18 09:55:40;;;;;;;10.88;3.35;;;10.50;99.90;;;;;;5039550;28;20030;-80
2021/03/18 09:58:10;;;;;;;5.88;3.63;;;10.50;99.90;;;;;;5032346;28;20028;-81
2021/03/18 10:00:37;;;;;;;6.45;3.35;;;10.70;99.90;;;;;;5052499;28;20029;-80
2021/03/18 10:03:02;;;;;;;10.50;4.40;;;10.40;99.90;;;;;;5051751;28;20021;-81
2021/03/18 10:05:28;;;;;;;4.85;2.90;;;10.30;99.90;;;;;;5044075;28;20025;-80
2021/03/18 10:07:55;;;;;;;7.40;3.03;;;10.40;99.90;;;;;;5040043;28;20112;-80
2021/03/18 10:10:21;;;;;;;4.95;2.75;;;10.50;99.90;;;;;;5051366;28;20029;-80
2021/03/18 10:12:49;;;;;;;4.85;2.33;;;10.30;99.90;;;;;;5049741;28;20454;-79
2021/03/18 10:15:16;;;;;;;5.57;2.13;;;10.40;99.90;;;;;;5052733;28;20084;-79
2021/03/18 10:17:44;;;;;;;4.82;2.45;;;10.50;99.90;;;;;;5054152;28;20424;-78
2021/03/18 10:20:28;;;;;;;6.13;2.17;;;10.80;99.90;;;;;;5053097;28;20370;-79
2021/03/18 10:23:07;;;;;;;5.03;2.42;;;11.00;99.90;;;;;;5036914;28;20036;-79
2021/03/18 10:25:35;;;;;;;4.57;2.60;;;10.80;99.90;;;;;;5054012;28;20037;-79
2021/03/18 10:28:10;;;;;;;3.15;1.98;;;10.90;99.90;;;;;;5054326;28;20020;-79
2021/03/18 10:30:40;;;;;;;3.97;2.17;;;11.00;99.90;;;;;;5053290;28;20032;-79
2021/03/18 10:33:16;;;;;;;3.75;2.58;;;10.90;99.90;;;;;;5054217;28;20516;-78
2021/03/18 10:35:58;;;;;;;9.07;2.67;;;10.80;99.90;;;;;;5036170;28;20028;-79
2021/03/18 10:38:26;;;;;;;7.57;3.42;;;10.70;99.90;;;;;;5054253;28;20028;-79
2021/03/18 10:40:52;;;;;;;4.65;2.90;;;10.80;99.90;;;;;;5053712;28;20485;-79
2021/03/18 10:43:26;;;;;;;5.90;2.50;;;10.60;99.90;;;;;;5034051;28;20154;-80
2021/03/18 10:46:04;;;;;;;4.40;2.50;;;10.10;99.90;;;;;;5033620;28;20033;-79
2021/03/18 10:48:33;;;;;;;6.15;2.65;;;9.80;99.90;;;;;;5050483;28;20491;-79
2021/03/18 10:51:13;;;;;;;6.63;2.45;;;9.60;99.90;;;;;;5034903;28;20055;-78
2021/03/18 10:53:41;;;;;;;2.83;2.22;;;9.10;99.90;;;;;;5050729;28;20041;-78
2021/03/18 10:56:12;;;;;;;4.88;2.92;;;8.90;99.90;;;;;;5049645;28;20017;-78
2021/03/18 10:58:41;;;;;;;5.32;2.58;;;9.30;99.90;;;;;;5042899;28;20047;-78
2021/03/18 11:01:29;;;;;;;8.25;2.30;;;9.50;99.90;;;;;;5050276;28;20400;-78
2021/03/18 11:04:02;;;;;;;3.70;1.83;;;9.50;99.90;;;;;;5050146;28;20658;-78
2021/03/18 11:06:28;;;;;;;2.70;2.03;;;9.70;99.90;;;;;;5050755;28;20071;-79
2021/03/18 11:08:56;;;;;;;5.00;2.60;;;10.00;99.90;;;;;;5049303;28;20088;-78
2021/03/18 11:11:32;;;;;;;3.95;1.95;;;10.10;99.90;;;;;;5050281;28;20029;-84
2021/03/18 11:14:09;;;;;;;3.88;1.85;;;10.10;99.90;;;;;;5050614;28;20028;-78
2021/03/18 11:16:35;;;;;;;3.15;2.20;;;10.20;99.90;;;;;;5043119;28;20090;-79
2021/03/18 11:19:04;;;;;;;9.75;2.50;;;10.40;99.90;;;;;;5042659;28;20051;-79
2021/03/18 11:21:35;;;;;;;7.15;2.10;;;10.50;99.90;;;;;;5050080;28;20104;-79
2021/03/18 11:24:13;;;;;;;5.07;2.38;;;10.40;99.90;;;;;;5037050;28;20044;-80
2021/03/18 11:26:41;;;;;;;5.15;2.20;;;10.80;99.90;;;;;;5049906;28;20037;-79
2021/03/18 11:29:15;;;;;;;3.28;1.70;;;11.30;99.90;;;;;;5050025;28;20443;-80
2021/03/18 11:31:44;;;;;;;3.15;2.15;;;11.60;99.90;;;;;;5038471;28;20023;-79
2021/03/18 11:34:34;;;;;;;6.70;2.30;;;11.30;99.90;;;;;;5048864;28;20040;-78
2021/03/18 11:37:07;;;;;;;4.40;2.20;;;11.10;99.90;;;;;;5042274;28;20039;-79
2021/03/18 11:39:33;;;;;;;5.97;2.20;;;10.80;99.90;;;;;;5050394;28;20025;-79
2021/03/18 11:41:59;;;;;;;5.18;2.40;;;11.20;99.90;;;;;;5050053;28;20036;-79
2021/03/18 11:44:27;;;;;;;4.88;2.85;;;11.90;99.90;;;;;;5049498;28;20044;-80
2021/03/18 11:46:58;;;;;;;8.65;2.70;;;11.90;99.90;;;;;;5049877;28;20029;-80
2021/03/18 11:49:24;;;;;;;8.25;2.67;;;12.50;99.90;;;;;;5049251;28;20044;-81
2021/03/18 11:51:50;;;;;;;4.85;2.70;;;12.80;97.30;;;;;;5049646;28;20389;-79
2021/03/18 11:54:15;;;;;;;3.95;2.88;;;12.40;94.80;;;;;;5049228;28;20017;-78
2021/03/18 11:56:41;;;;;;;4.25;2.65;;;11.60;97.00;;;;;;5046525;28;20474;-78
2021/03/18 11:59:06;;;;;;;6.53;2.75;;;11.20;98.30;;;;;;5048922;28;20554;-78
2021/03/18 12:01:32;;;;;;;5.68;2.75;;;11.80;99.90;;;;;;5048827;28;20041;-78
2021/03/18 12:03:57;;;;;;;6.05;3.17;;;12.40;99.90;;;;;;5048574;28;20136;-78
2021/03/18 12:06:23;;;;;;;9.88;3.60;;;13.20;98.80;;;;;;5049346;28;20025;-78
2021/03/18 12:08:49;;;;;;;4.20;2.67;;;13.20;91.20;;;;;;5042242;28;20035;-78
2021/03/18 12:11:14;;;;;;;5.35;2.88;;;13.10;94.20;;;;;;5048342;28;20064;-78
2021/03/18 12:13:40;;;;;;;4.25;2.70;;;13.50;82.50;;;;;;5049036;28;20083;-78
2021/03/18 12:16:06;;;;;;;3.75;2.80;;;13.90;87.10;;;;;;5049275;28;20032;-79
2021/03/18 12:18:32;;;;;;;5.13;3.10;;;14.30;90.10;;;;;;5031151;28;20473;-79
2021/03/18 12:20:58;;;;;;;4.70;3.00;;;15.20;90.40;;;;;;5049005;28;20029;-79
2021/03/18 12:23:24;;;;;;;8.73;2.63;;;16.40;84.40;;;;;;5049607;28;20115;-79
2021/03/18 12:25:50;;;;;;;5.15;2.60;;;17.50;73.20;;;;;;5048702;28;20644;-79
2021/03/18 12:28:16;;;;;;;7.97;3.17;;;17.90;65.50;;;;;;5048176;28;20033;-79
2021/03/18 12:30:45;;;;;;;7.07;2.95;;;17.90;59.20;;;;;;5048988;28;20033;-78
2021/03/18 12:33:12;;;;;;;4.10;2.60;;;18.00;56.40;;;;;;5048611;28;20035;-78
2021/03/18 12:35:38;;;;;;;7.82;3.42;;;16.50;54.70;;;;;;5048423;28;20509;-79
2021/03/18 12:38:04;;;;;;;4.55;3.28;;;14.50;61.40;;;;;;5048320;28;20028;-78
2021/03/18 12:40:30;;;;;;;4.40;2.95;;;12.80;68.10;;;;;;5048950;28;20096;-78
2021/03/18 12:42:56;;;;;;;3.50;2.55;;;11.60;78.50;;;;;;5047215;28;20164;-78
2021/03/18 12:45:21;;;;;;;3.72;2.38;;;10.80;88.60;;;;;;5048080;28;20032;-78
2021/03/18 12:47:47;;;;;;;6.28;3.00;;;10.20;93.40;;;;;;5038952;28;20029;-78
2021/03/18 12:50:16;;;;;;;7.93;2.95;;;10.00;97.40;;;;;;5048576;28;20488;-78
2021/03/18 12:52:42;;;;;;;3.80;2.60;;;9.90;99.90;;;;;;5040558;28;20025;-77
2021/03/18 12:55:09;;;;;;;4.82;2.60;;;9.80;99.90;;;;;;5048322;28;20500;-77